Aeroporto :
LOGIN :

Iscrizione | Disclaimer

   EN    FR    IT 

 










Sommario :    VFR   VFR Marginale   IFR   IFR Intensivo   IFR Molto Intensivo
Visibilità : 
Base nubi : 
>= 8 km
>= 3000ft
5 / 8 km
1000 / 3000 ft
1500m / 5 km
500 / 1000 ft
800 / 1500m
200 / 500 ft
< 800m
< 200 ft
Simboli :   Temporali  Nebbia  Neve Forte  Precipitazioni Forti  Vento > 20 kt
SIGMETs :   Varie  Temporali  Ghiacco  Turbolenza  Onda orograficha  Ceneri Vulcaniche






- Altitudine del aeroporto : 28 ft
- Codice IATA : SOZ


LFKS - Solenzara

ULTIMO METAR :
  • 241430Z AUTO 15017KT 9999 -DZ OVC013/// ///CB 14/12 Q1020

METARs OBSOLETI :
  • 241400Z AUTO 14015KT 8000 DZ BKN009/// OVC016/// ///CB 14/13 Q1021
  • 241330Z AUTO 14014KT 5000 -RA BR BKN012/// BKN031/// OVC045/// ///CB 14/13 Q1021
  • 241300Z AUTO 14015KT 9999 -DZ BKN012/// BKN021/// BKN042/// ///CB 14/12 Q1022
  • 241230Z AUTO 15014KT 9999 -DZ FEW015/// BKN025/// BKN036/// ///CB 14/12 Q1023
  • 241200Z AUTO 15015KT 9999 BKN015/// BKN024/// OVC048/// ///TCU 14/12 Q1023

TAF TAF LFKS
Valido dal 24 a 15 ore il 25 a 15 ore UTC


241400Z 2415/2515 14015KT 7000 -RA SCT010 BKN015
TEMPO 2415/2418 16020G30KT 4000 RA BKN010
BECMG 2418/2420 27003KT NSW



MetMap, La meteo Aeronautica in un colpo d'occhio ! - Copyright ORBIFLY Dicembre 2007 - Disclaimer

ORBIFLY MET'MAP TEAM :

Programmazione e sviluppo : Alexandra Zaïnal
Concezione : Baudouin d'Aumeries
Aiuto per la programmazione : Marc-Olivier Méhu
Supporto tecnico e logistico : Manuel Goepfert
Aiuto per la traduzione : Arnaldo La Scala

Contatto : metmap@orbifly.com




FONTI E CREDITI :

   NOAA